createdAt,value
2018-08-04T00:02:32.981Z,100375.77
2018-08-04T00:07:37.295Z,100375.30
2018-08-04T00:12:41.028Z,100364.41
2018-08-04T00:17:44.874Z,100362.24
2018-08-04T00:22:48.872Z,100356.03
2018-08-04T00:27:52.389Z,100356.84
2018-08-04T00:32:56.142Z,100353.30
2018-08-04T00:37:59.735Z,100357.39
2018-08-04T00:43:03.325Z,100347.87
2018-08-04T00:48:06.852Z,100349.27
2018-08-04T00:53:10.406Z,100344.68
2018-08-04T00:58:14.040Z,100346.08
2018-08-04T01:03:17.954Z,100344.16
2018-08-04T01:08:21.834Z,100337.07
2018-08-04T01:13:25.670Z,100337.92
2018-08-04T01:18:30.114Z,100329.77
2018-08-04T01:23:33.939Z,100317.56
2018-08-04T01:28:37.549Z,100317.86
2018-08-04T01:33:41.129Z,100318.45
2018-08-04T01:38:46.807Z,100305.41
2018-08-04T01:43:50.321Z,100307.83
2018-08-04T01:48:54.084Z,100306.25
2018-08-04T01:53:57.777Z,100300.81
2018-08-04T01:59:01.367Z,100297.84
2018-08-04T02:04:04.925Z,100299.50
2018-08-04T02:09:10.381Z,100294.69
2018-08-04T02:14:14.441Z,100278.19
2018-08-04T02:19:18.002Z,100270.08
2018-08-04T02:24:21.561Z,100270.67
2018-08-04T02:29:25.234Z,100265.78
2018-08-04T02:34:28.751Z,100273.72
2018-08-04T02:39:32.497Z,100274.05
2018-08-04T02:44:36.812Z,100270.61
2018-08-04T02:49:40.358Z,100272.04
2018-08-04T02:54:43.928Z,100267.19
2018-08-04T02:59:47.501Z,100267.77
2018-08-04T03:04:51.028Z,100262.62
2018-08-04T03:09:54.568Z,100260.05
2018-08-04T03:14:58.106Z,100269.11
2018-08-04T03:20:03.895Z,100272.44
2018-08-04T03:25:08.008Z,100271.83
2018-08-04T03:30:14.346Z,100271.33
2018-08-04T03:35:18.075Z,100272.23
2018-08-04T03:40:22.985Z,100264.41
2018-08-04T03:45:26.602Z,100274.67
2018-08-04T03:50:30.207Z,100278.75
2018-08-04T03:55:33.769Z,100284.53
2018-08-04T04:00:37.344Z,100286.97
2018-08-04T04:05:41.269Z,100278.81
2018-08-04T04:10:44.882Z,100285.58
2018-08-04T04:15:48.473Z,100284.78
2018-08-04T04:20:51.985Z,100288.05
2018-08-04T04:25:55.524Z,100291.30
2018-08-04T04:30:59.172Z,100298.92
2018-08-04T04:36:02.958Z,100303.77
2018-08-04T04:41:06.973Z,100298.32
2018-08-04T04:46:10.913Z,100295.02
2018-08-04T04:51:15.216Z,100288.77
2018-08-04T04:56:18.798Z,100283.08
2018-08-04T05:01:22.340Z,100291.27
2018-08-04T05:06:25.878Z,100295.80
2018-08-04T05:11:29.434Z,100293.29
2018-08-04T05:16:33.011Z,100296.75
2018-08-04T05:21:36.836Z,100294.05
2018-08-04T05:26:40.525Z,100301.07
2018-08-04T05:31:44.965Z,100302.20
2018-08-04T05:36:48.414Z,100301.08
2018-08-04T05:41:51.994Z,100301.33
2018-08-04T05:46:55.657Z,100298.02
2018-08-04T05:52:00.134Z,100302.52
2018-08-04T05:57:03.764Z,100302.49
2018-08-04T06:02:07.767Z,100298.03
2018-08-04T06:07:11.263Z,100308.20
2018-08-04T06:12:15.670Z,100301.87
2018-08-04T06:17:23.196Z,100301.20
2018-08-04T06:22:29.013Z,100300.77
2018-08-04T06:27:37.153Z,100307.97
2018-08-04T06:32:41.982Z,100301.61
2018-08-04T06:37:47.836Z,100295.56
2018-08-04T06:42:53.639Z,100308.13
2018-08-04T06:47:58.144Z,100312.97
2018-08-04T06:53:04.986Z,100313.92
2018-08-04T06:58:10.101Z,100307.05
2018-08-04T07:03:16.640Z,100303.09
2018-08-04T07:08:20.306Z,100295.56
2018-08-04T07:13:25.066Z,100291.67
2018-08-04T07:18:28.877Z,100297.01
2018-08-04T07:23:39.765Z,100291.39
2018-08-04T07:28:43.354Z,100290.67
2018-08-04T07:33:46.881Z,100286.12
2018-08-04T07:38:50.470Z,100287.05
2018-08-04T07:43:54.802Z,100289.59
2018-08-04T07:48:58.777Z,100294.83
2018-08-04T07:54:03.706Z,100288.63
2018-08-04T07:59:13.516Z,100290.25
2018-08-04T08:04:19.626Z,100287.84
2018-08-04T08:09:29.087Z,100284.39
2018-08-04T08:14:33.605Z,100291.13
2018-08-04T08:19:37.202Z,100287.94
2018-08-04T08:24:40.882Z,100285.53
2018-08-04T08:29:44.517Z,100284.17
2018-08-04T08:34:48.450Z,100273.12
2018-08-04T08:39:52.117Z,100280.71
2018-08-04T08:44:55.742Z,100279.88
2018-08-04T08:49:59.281Z,100282.35
2018-08-04T08:55:10.033Z,100268.39
2018-08-04T09:00:14.679Z,100275.79
2018-08-04T09:05:24.781Z,100264.83
2018-08-04T09:10:28.398Z,100266.75
2018-08-04T09:15:32.092Z,100267.97
2018-08-04T09:20:36.334Z,100271.11
2018-08-04T09:25:40.686Z,100268.44
2018-08-04T09:30:45.729Z,100267.98
2018-08-04T09:35:49.203Z,100270.77
2018-08-04T09:40:52.710Z,100259.25
2018-08-04T09:45:56.322Z,100251.77
2018-08-04T09:50:59.842Z,100251.19
2018-08-04T09:56:03.393Z,100247.80
2018-08-04T10:01:12.779Z,100245.67
2018-08-04T10:06:16.666Z,100241.06
2018-08-04T10:11:26.335Z,100227.39
2018-08-04T10:16:30.050Z,100230.14
2018-08-04T10:21:34.495Z,100232.70
2018-08-04T10:26:38.850Z,100224.75
2018-08-04T10:31:53.470Z,100221.02
2018-08-04T10:36:58.206Z,100224.59
2018-08-04T10:42:02.402Z,100220.19
2018-08-04T10:47:07.123Z,100212.48
2018-08-04T10:52:11.314Z,100203.63
2018-08-04T10:57:18.930Z,100201.08
2018-08-04T11:08:04.083Z,100189.91
2018-08-04T11:13:09.323Z,100187.25
2018-08-04T11:18:17.825Z,100184.14
2018-08-04T11:23:23.473Z,100177.98
2018-08-04T11:28:27.445Z,100189.59
2018-08-04T11:44:55.322Z,100177.58
2018-08-04T11:49:59.349Z,100175.74
2018-08-04T11:55:06.224Z,100174.27
2018-08-04T12:00:10.535Z,100174.80
2018-08-04T12:05:14.685Z,100163.17
2018-08-04T12:10:18.642Z,100159.43
2018-08-04T12:15:23.845Z,100162.55
2018-08-04T12:20:27.756Z,100165.28
2018-08-04T12:25:31.568Z,100153.16
2018-08-04T12:30:35.252Z,100142.14
2018-08-04T12:35:39.181Z,100136.72
2018-08-04T12:40:42.838Z,100138.46
2018-08-04T12:45:47.008Z,100143.60
2018-08-04T12:50:51.173Z,100135.58
2018-08-04T12:55:55.041Z,100133.78
2018-08-04T13:00:58.759Z,100130.49
2018-08-04T13:06:03.033Z,100128.20
2018-08-04T13:11:06.869Z,100124.20
2018-08-04T13:16:10.402Z,100115.58
2018-08-04T13:21:14.258Z,100126.66
2018-08-04T13:26:18.930Z,100125.01
2018-08-04T13:31:22.693Z,100129.30
2018-08-04T13:36:26.180Z,100129.46
2018-08-04T13:41:30.618Z,100131.86
2018-08-04T13:46:34.385Z,100124.56
2018-08-04T13:51:38.554Z,100133.55
2018-08-04T13:56:42.211Z,100121.53
2018-08-04T14:01:45.915Z,100125.79
2018-08-04T14:06:49.567Z,100124.03
2018-08-04T14:11:53.046Z,100120.75
2018-08-04T14:16:56.593Z,100120.86
2018-08-04T14:22:00.187Z,100119.43
2018-08-04T14:27:03.737Z,100117.88
2018-08-04T14:32:07.324Z,100114.25
2018-08-04T14:37:11.206Z,100117.16
2018-08-04T14:42:14.939Z,100104.79
2018-08-04T14:47:18.561Z,100106.73
2018-08-04T14:52:22.168Z,100107.16
2018-08-04T14:57:25.889Z,100101.06
2018-08-04T15:02:29.854Z,100094.41
2018-08-04T15:07:33.790Z,100098.80
2018-08-04T15:12:38.191Z,100081.86
2018-08-04T15:17:42.415Z,100073.27
2018-08-04T15:22:47.242Z,100079.47
2018-08-04T15:27:53.424Z,100069.79
2018-08-04T15:32:57.446Z,100070.28
2018-08-04T15:38:01.107Z,100069.70
2018-08-04T15:43:04.824Z,100069.19
2018-08-04T15:48:09.456Z,100074.59
2018-08-04T15:53:13.743Z,100066.75
2018-08-04T15:58:19.136Z,100071.53
2018-08-04T16:03:22.915Z,100072.31
2018-08-04T16:08:26.531Z,100077.97
2018-08-04T16:13:30.518Z,100083.75
2018-08-04T16:18:34.013Z,100089.45
2018-08-04T16:23:37.964Z,100091.85
2018-08-04T16:28:41.851Z,100090.45
2018-08-04T16:33:45.596Z,100084.45
2018-08-04T16:38:49.213Z,100078.15
2018-08-04T16:43:52.831Z,100072.59
2018-08-04T16:48:56.741Z,100075.69
2018-08-04T16:54:00.607Z,100071.21
2018-08-04T16:59:04.163Z,100082.45
2018-08-04T17:04:08.098Z,100078.39
2018-08-04T17:09:13.153Z,100072.88
2018-08-04T17:14:16.825Z,100085.91
2018-08-04T17:19:20.483Z,100088.16
2018-08-04T17:24:24.398Z,100086.41
2018-08-04T17:29:28.386Z,100088.97
2018-08-04T17:34:32.850Z,100100.19
2018-08-04T17:39:36.481Z,100098.03
2018-08-04T17:44:40.068Z,100097.50
2018-08-04T17:49:44.587Z,100105.47
2018-08-04T17:54:48.303Z,100105.47
2018-08-04T17:59:52.107Z,100102.91
2018-08-04T18:04:55.925Z,100102.95
2018-08-04T18:09:59.473Z,100109.47
2018-08-04T18:15:08.854Z,100104.07
2018-08-04T18:20:12.850Z,100108.13
2018-08-04T18:25:16.467Z,100108.44
2018-08-04T18:30:20.031Z,100117.42
2018-08-04T18:35:23.498Z,100120.02
2018-08-04T18:40:27.148Z,100128.34
2018-08-04T18:45:30.686Z,100124.94
2018-08-04T18:50:34.505Z,100122.58
2018-08-04T18:55:38.007Z,100128.92
2018-08-04T19:00:41.566Z,100130.70
2018-08-04T19:05:45.046Z,100128.58
2018-08-04T19:10:48.722Z,100123.75
2018-08-04T19:15:52.218Z,100133.58
2018-08-04T19:20:56.006Z,100134.08
2018-08-04T19:25:59.895Z,100140.39
2018-08-04T19:31:03.529Z,100139.87
2018-08-04T19:36:07.068Z,100146.55
2018-08-04T19:41:10.863Z,100147.98
2018-08-04T19:46:14.930Z,100145.81
2018-08-04T19:51:18.530Z,100149.31
2018-08-04T19:56:22.971Z,100159.52
2018-08-04T20:01:26.410Z,100155.98
2018-08-04T20:06:30.106Z,100149.55
2018-08-04T20:11:33.701Z,100150.84
2018-08-04T20:16:37.282Z,100148.42
2018-08-04T20:21:40.825Z,100145.31
2018-08-04T20:26:44.398Z,100145.53
2018-08-04T20:31:48.028Z,100146.70
2018-08-04T20:36:51.568Z,100144.33
2018-08-04T20:41:55.068Z,100148.27
2018-08-04T20:46:58.590Z,100153.06
2018-08-04T20:52:02.184Z,100150.08
2018-08-04T20:57:05.802Z,100159.70
2018-08-04T21:02:09.371Z,100164.12
2018-08-04T21:07:13.275Z,100172.84
2018-08-04T21:12:16.722Z,100180.03
2018-08-04T21:17:20.930Z,100175.25
2018-08-04T21:22:24.386Z,100179.11
2018-08-04T21:27:28.423Z,100181.83
2018-08-04T21:32:31.990Z,100181.11
2018-08-04T21:37:35.490Z,100176.13
2018-08-04T21:42:39.061Z,100171.88
2018-08-04T21:47:42.645Z,100176.45
2018-08-04T21:52:46.290Z,100176.30
2018-08-04T21:57:49.800Z,100170.11
2018-08-04T22:02:59.583Z,100169.09
2018-08-04T22:08:14.238Z,100180.05
2018-08-04T22:13:17.709Z,100185.54
2018-08-04T22:18:21.329Z,100182.08
2018-08-04T22:23:24.939Z,100194.49
2018-08-04T22:28:28.511Z,100188.97
2018-08-04T22:33:32.065Z,100192.44
2018-08-04T22:38:35.631Z,100191.81
2018-08-04T22:43:39.182Z,100199.86
2018-08-04T22:48:44.985Z,100201.38
2018-08-04T22:53:48.708Z,100205.56
2018-08-04T22:58:52.216Z,100211.25
2018-08-04T23:03:55.850Z,100219.36
2018-08-04T23:08:59.390Z,100233.36
2018-08-04T23:14:02.883Z,100233.52
2018-08-04T23:19:07.075Z,100239.84
2018-08-04T23:24:10.589Z,100253.17
2018-08-04T23:29:15.334Z,100246.94
2018-08-04T23:34:18.817Z,100250.13
2018-08-04T23:39:22.391Z,100249.76
2018-08-04T23:44:25.953Z,100254.99
2018-08-04T23:49:29.483Z,100261.34
2018-08-04T23:54:32.991Z,100258.14
2018-08-04T23:59:36.530Z,100256.93
